createdAt,value
2022-09-15T00:01:21.873Z,74.25
2022-09-15T00:03:53.001Z,73.33
2022-09-15T00:06:21.824Z,74.05
2022-09-15T00:08:51.859Z,73.05
2022-09-15T00:11:22.715Z,74.62
2022-09-15T00:13:52.464Z,74.57
2022-09-15T00:16:23.492Z,76.22
2022-09-15T00:18:53.609Z,74.61
2022-09-15T00:21:23.630Z,74.54
2022-09-15T00:23:52.448Z,73.83
2022-09-15T00:26:22.259Z,73.02
2022-09-15T00:28:51.236Z,72.44
2022-09-15T00:31:22.471Z,72.67
2022-09-15T00:33:56.320Z,74.32
2022-09-15T00:36:26.931Z,76.17
2022-09-15T00:38:55.822Z,73.86
2022-09-15T00:41:25.439Z,72.57
2022-09-15T00:43:56.645Z,72.99
2022-09-15T00:46:27.147Z,73.30
2022-09-15T00:49:01.132Z,72.69
2022-09-15T00:51:35.255Z,72.48
2022-09-15T00:54:08.295Z,73.43
2022-09-15T00:56:39.916Z,74.30
2022-09-15T00:59:18.277Z,74.75
2022-09-15T01:01:48.422Z,73.26
2022-09-15T01:04:18.485Z,72.86
2022-09-15T01:06:51.379Z,73.31
2022-09-15T01:09:23.689Z,73.57
2022-09-15T01:11:52.555Z,71.97
2022-09-15T01:14:21.021Z,73.84
2022-09-15T01:17:02.626Z,74.05
2022-09-15T01:20:09.110Z,75.56
2022-09-15T01:22:49.032Z,73.15
2022-09-15T01:25:35.889Z,73.57
2022-09-15T01:28:37.626Z,73.09
2022-09-15T01:31:12.180Z,74.51
2022-09-15T01:33:46.393Z,74.16
2022-09-15T01:36:21.367Z,74.00
2022-09-15T01:39:01.161Z,73.14
2022-09-15T01:41:38.579Z,73.54
2022-09-15T01:44:10.313Z,73.25
2022-09-15T01:46:47.294Z,73.77
2022-09-15T01:49:21.328Z,72.55
2022-09-15T01:51:52.962Z,74.18
2022-09-15T01:54:23.484Z,73.32
2022-09-15T01:56:52.120Z,74.95
2022-09-15T01:59:23.265Z,72.36
2022-09-15T02:02:00.233Z,71.63
2022-09-15T02:04:34.539Z,71.42
2022-09-15T02:07:12.264Z,71.71
2022-09-15T02:09:46.966Z,73.09
2022-09-15T02:12:22.179Z,72.46
2022-09-15T02:14:58.191Z,72.25
2022-09-15T02:17:32.735Z,73.17
2022-09-15T02:20:10.433Z,72.90
2022-09-15T02:22:41.018Z,71.43
2022-09-15T02:25:12.850Z,71.39
2022-09-15T02:27:45.917Z,72.05
2022-09-15T02:30:17.285Z,72.26
2022-09-15T02:32:54.540Z,73.19
2022-09-15T02:35:25.259Z,72.99
2022-09-15T02:37:54.489Z,71.92
2022-09-15T02:40:23.913Z,71.96
2022-09-15T02:42:56.978Z,74.23
2022-09-15T02:45:31.706Z,73.94
2022-09-15T02:48:01.752Z,75.00
2022-09-15T02:50:31.176Z,74.21
2022-09-15T02:52:59.685Z,74.06
2022-09-15T02:55:29.259Z,73.04
2022-09-15T02:57:57.794Z,72.44
2022-09-15T03:00:26.963Z,71.57
2022-09-15T03:02:56.364Z,70.70
2022-09-15T03:05:28.137Z,71.95
2022-09-15T03:07:58.024Z,70.81
2022-09-15T03:10:29.865Z,70.84
2022-09-15T03:12:58.589Z,70.65
2022-09-15T03:15:28.184Z,70.69
2022-09-15T03:17:58.348Z,71.32
2022-09-15T03:20:30.455Z,71.10
2022-09-15T03:22:59.156Z,70.42
2022-09-15T03:25:28.120Z,71.59
2022-09-15T03:27:56.601Z,71.40
2022-09-15T03:30:25.252Z,71.06
2022-09-15T03:32:53.744Z,71.14
2022-09-15T03:35:22.897Z,71.26
2022-09-15T03:37:53.325Z,70.34
2022-09-15T03:40:21.957Z,70.31
2022-09-15T03:42:50.462Z,69.87
2022-09-15T03:45:19.133Z,71.73
2022-09-15T03:47:47.577Z,71.67
2022-09-15T03:50:17.371Z,70.50
2022-09-15T03:52:46.660Z,69.86
2022-09-15T03:55:18.293Z,70.13
2022-09-15T03:57:46.858Z,70.62
2022-09-15T04:00:16.303Z,70.04
2022-09-15T04:02:44.735Z,68.38
2022-09-15T04:05:14.019Z,67.39
2022-09-15T04:07:42.893Z,66.98
2022-09-15T04:10:11.539Z,65.80
2022-09-15T04:12:41.495Z,65.93
2022-09-15T04:15:10.965Z,66.27
2022-09-15T04:17:39.687Z,66.86
2022-09-15T04:20:09.442Z,69.17
2022-09-15T04:22:38.170Z,71.21
2022-09-15T04:25:07.561Z,70.75
2022-09-15T04:27:36.561Z,68.84
2022-09-15T04:30:10.809Z,69.58
2022-09-15T04:32:39.910Z,68.46
2022-09-15T04:35:08.700Z,66.75
2022-09-15T04:37:37.248Z,67.12
2022-09-15T04:40:06.329Z,69.75
2022-09-15T04:42:34.864Z,69.91
2022-09-15T04:45:03.469Z,71.99
2022-09-15T04:47:33.466Z,70.20
2022-09-15T04:50:02.010Z,69.52
2022-09-15T04:52:32.539Z,69.16
2022-09-15T04:55:01.066Z,69.98
2022-09-15T04:57:29.574Z,69.25
2022-09-15T04:59:58.183Z,71.01
2022-09-15T05:02:27.777Z,70.34
2022-09-15T05:04:57.835Z,69.89
2022-09-15T05:07:26.578Z,69.51
2022-09-15T05:09:55.186Z,73.28
2022-09-15T05:12:23.722Z,72.23
2022-09-15T05:14:52.346Z,71.80
2022-09-15T05:17:24.065Z,70.66
2022-09-15T05:19:57.563Z,68.57
2022-09-15T05:22:27.824Z,67.08
2022-09-15T05:25:06.202Z,67.96
2022-09-15T05:30:42.471Z,66.76
2022-09-15T05:34:27.185Z,65.77
2022-09-15T05:36:58.124Z,67.20
2022-09-15T05:39:55.755Z,65.13
2022-09-15T05:42:24.620Z,65.76
2022-09-15T05:44:53.101Z,65.04
2022-09-15T05:47:21.613Z,65.70
2022-09-15T05:49:50.030Z,66.13
2022-09-15T05:52:18.525Z,64.45
2022-09-15T05:54:48.433Z,67.21
2022-09-15T05:57:17.105Z,68.97
2022-09-15T05:59:45.883Z,67.82
2022-09-15T06:02:14.188Z,64.95
2022-09-15T06:04:43.141Z,64.36
2022-09-15T06:07:11.787Z,63.85
2022-09-15T06:09:40.309Z,62.73
2022-09-15T06:12:10.349Z,64.42
2022-09-15T06:14:38.921Z,62.90
2022-09-15T06:17:07.368Z,64.37
2022-09-15T06:19:36.026Z,63.88
2022-09-15T06:22:04.500Z,63.78
2022-09-15T06:24:33.154Z,63.59
2022-09-15T06:27:03.532Z,64.05
2022-09-15T06:29:33.745Z,63.10
2022-09-15T06:32:03.001Z,61.50
2022-09-15T06:34:32.863Z,60.49
2022-09-15T06:37:05.327Z,59.91
2022-09-15T06:39:35.055Z,61.52
2022-09-15T06:42:05.713Z,60.23
2022-09-15T06:44:38.022Z,60.58
2022-09-15T06:47:07.407Z,60.51
2022-09-15T06:49:38.513Z,62.67
2022-09-15T06:52:07.477Z,62.05
2022-09-15T06:54:37.797Z,61.04
2022-09-15T06:57:06.517Z,61.05
2022-09-15T06:59:34.975Z,60.65
2022-09-15T07:02:05.497Z,58.46
2022-09-15T07:04:37.035Z,57.21
2022-09-15T07:07:06.397Z,57.93
2022-09-15T07:09:35.555Z,60.15
2022-09-15T07:12:04.900Z,64.81
2022-09-15T07:14:33.274Z,65.26
2022-09-15T07:17:01.830Z,65.64
2022-09-15T07:19:31.675Z,65.33
2022-09-15T07:22:00.345Z,66.17
2022-09-15T07:24:28.733Z,67.94
2022-09-15T07:26:57.303Z,68.92
2022-09-15T07:29:25.811Z,68.59
2022-09-15T07:31:54.564Z,66.03
2022-09-15T07:34:23.072Z,64.77
2022-09-15T07:36:52.973Z,62.08
2022-09-15T07:39:21.557Z,62.97
2022-09-15T07:41:50.397Z,62.32
2022-09-15T07:44:18.628Z,64.12
2022-09-15T07:46:47.085Z,64.40
2022-09-15T07:49:15.747Z,64.24
2022-09-15T07:51:44.367Z,63.50
2022-09-15T07:54:17.193Z,66.74
2022-09-15T07:56:47.921Z,64.40
2022-09-15T07:59:16.555Z,63.10
2022-09-15T08:01:45.116Z,64.66
2022-09-15T08:04:13.664Z,64.46
2022-09-15T08:06:42.270Z,66.51
2022-09-15T08:09:14.739Z,66.96
2022-09-15T08:11:44.707Z,65.83
2022-09-15T08:14:13.239Z,64.20
2022-09-15T08:16:41.922Z,65.75
2022-09-15T08:19:10.203Z,66.18
2022-09-15T08:21:38.704Z,64.08
2022-09-15T08:24:07.327Z,59.43
2022-09-15T08:26:38.489Z,60.13
2022-09-15T08:29:08.662Z,59.29
2022-09-15T08:31:37.337Z,59.04
2022-09-15T08:34:07.070Z,59.79
2022-09-15T08:36:35.780Z,60.72
2022-09-15T08:39:04.820Z,60.95
2022-09-15T08:41:36.767Z,57.07
2022-09-15T08:44:19.921Z,56.36
2022-09-15T08:46:53.918Z,58.53
2022-09-15T08:49:49.972Z,56.06
2022-09-15T08:52:22.733Z,60.10
2022-09-15T08:54:54.812Z,61.65
2022-09-15T08:57:26.011Z,61.77
2022-09-15T08:59:56.214Z,62.11
2022-09-15T09:02:58.331Z,59.95
2022-09-15T09:05:40.768Z,60.68
2022-09-15T09:08:32.511Z,61.38
2022-09-15T09:11:11.132Z,62.46
2022-09-15T09:13:48.784Z,63.16
2022-09-15T09:16:39.539Z,64.11
2022-09-15T09:19:33.901Z,63.71
2022-09-15T09:22:08.333Z,63.40
2022-09-15T09:24:42.543Z,62.94
2022-09-15T09:27:15.151Z,62.76
2022-09-15T09:29:51.577Z,61.98
2022-09-15T09:32:25.884Z,63.16
2022-09-15T09:35:02.353Z,63.04
2022-09-15T09:37:32.531Z,64.09
2022-09-15T09:40:01.663Z,64.25
2022-09-15T09:42:37.285Z,64.04
2022-09-15T09:45:07.686Z,62.49
2022-09-15T09:47:38.902Z,64.05
2022-09-15T09:50:36.157Z,63.04
2022-09-15T09:53:20.722Z,63.03
2022-09-15T09:55:49.319Z,63.51
2022-09-15T09:58:21.005Z,62.77
2022-09-15T10:00:50.365Z,64.23
2022-09-15T10:03:22.121Z,62.24
2022-09-15T10:06:03.825Z,63.94
2022-09-15T10:08:32.456Z,64.74
2022-09-15T10:11:06.352Z,62.17
2022-09-15T10:13:36.897Z,60.27
2022-09-15T10:16:07.927Z,59.90
2022-09-15T10:18:40.131Z,60.87
2022-09-15T10:21:11.365Z,61.55
2022-09-15T10:23:40.079Z,61.86
2022-09-15T10:26:24.018Z,61.43
2022-09-15T10:29:13.819Z,60.50
2022-09-15T10:31:44.664Z,59.60
2022-09-15T10:34:30.589Z,61.16
2022-09-15T10:37:09.699Z,59.92
2022-09-15T10:39:58.848Z,61.25
2022-09-15T10:42:42.219Z,60.38
2022-09-15T10:45:20.366Z,60.98
2022-09-15T10:48:03.376Z,59.95
2022-09-15T10:50:43.478Z,59.71
2022-09-15T10:53:18.487Z,59.48
2022-09-15T10:55:58.444Z,60.39
2022-09-15T10:58:49.753Z,60.71
2022-09-15T11:01:33.585Z,60.31
2022-09-15T11:04:20.304Z,61.65
2022-09-15T11:06:55.888Z,62.03
2022-09-15T11:09:27.283Z,61.60
2022-09-15T11:12:12.375Z,60.51
2022-09-15T11:14:51.832Z,61.42
2022-09-15T11:17:40.139Z,60.92
2022-09-15T11:20:26.183Z,60.44
2022-09-15T11:23:04.008Z,60.21
2022-09-15T11:25:36.690Z,60.04
2022-09-15T11:28:12.937Z,59.72
2022-09-15T11:30:47.869Z,59.97
2022-09-15T11:33:22.497Z,58.81
2022-09-15T11:35:56.998Z,58.76
2022-09-15T11:38:35.755Z,57.76
2022-09-15T11:41:19.910Z,55.72
2022-09-15T11:44:08.505Z,57.55
2022-09-15T11:46:51.959Z,59.82
2022-09-15T11:49:24.765Z,58.42
2022-09-15T11:52:01.747Z,59.21
2022-09-15T11:54:38.936Z,57.67
2022-09-15T11:57:17.378Z,56.21
2022-09-15T11:59:52.710Z,57.43
2022-09-15T12:02:27.356Z,58.34
2022-09-15T12:05:06.698Z,59.74
2022-09-15T12:07:40.478Z,59.00
2022-09-15T12:10:19.258Z,59.88
2022-09-15T12:12:48.540Z,60.02
2022-09-15T12:15:20.033Z,60.39
2022-09-15T12:17:54.977Z,61.29
2022-09-15T12:20:26.977Z,61.06
2022-09-15T12:23:03.857Z,61.76
2022-09-15T12:25:43.480Z,62.68
2022-09-15T12:28:38.814Z,61.46
2022-09-15T12:31:25.330Z,63.12
2022-09-15T12:33:59.246Z,63.48
2022-09-15T12:36:46.547Z,63.76
2022-09-15T12:39:31.636Z,62.48
2022-09-15T12:42:23.368Z,64.06
2022-09-15T12:44:55.919Z,63.41
2022-09-15T12:47:39.342Z,63.14
2022-09-15T12:50:25.292Z,63.41
2022-09-15T12:52:58.228Z,64.57
2022-09-15T12:55:29.043Z,64.71
2022-09-15T12:58:01.406Z,64.31
2022-09-15T13:00:45.573Z,65.10
2022-09-15T13:04:23.129Z,64.71
2022-09-15T13:07:24.790Z,61.88
2022-09-15T13:10:02.366Z,60.88
2022-09-15T13:12:37.120Z,60.71
2022-09-15T13:15:13.662Z,61.02
2022-09-15T13:17:45.739Z,59.99
2022-09-15T13:20:23.387Z,61.63
2022-09-15T13:22:56.571Z,61.15
2022-09-15T13:25:29.522Z,61.42
2022-09-15T13:28:00.911Z,60.98
2022-09-15T13:30:45.821Z,59.75
2022-09-15T13:39:37.087Z,59.86
2022-09-15T13:42:25.029Z,60.57
2022-09-15T13:45:29.551Z,61.81
2022-09-15T13:48:23.269Z,61.79
2022-09-15T13:50:59.682Z,61.19
2022-09-15T13:53:45.590Z,61.92
2022-09-15T13:56:20.710Z,63.30
2022-09-15T13:59:01.598Z,61.78
2022-09-15T14:01:39.022Z,61.80
2022-09-15T14:04:13.418Z,61.17
2022-09-15T14:06:44.524Z,62.60
2022-09-15T14:09:17.119Z,63.12
2022-09-15T14:11:50.185Z,62.29
2022-09-15T14:14:35.709Z,63.20
2022-09-15T14:17:04.346Z,62.34
2022-09-15T14:19:36.817Z,62.13
2022-09-15T14:22:26.229Z,62.35
2022-09-15T14:24:56.178Z,62.50
2022-09-15T14:27:27.442Z,61.80
2022-09-15T14:29:57.990Z,62.12
2022-09-15T14:32:29.901Z,61.93
2022-09-15T14:35:20.634Z,60.72
2022-09-15T14:37:58.770Z,59.60
2022-09-15T14:40:31.056Z,61.40
2022-09-15T14:42:59.788Z,62.62
2022-09-15T14:48:30.168Z,63.79
2022-09-15T14:51:08.265Z,65.25
2022-09-15T14:53:43.828Z,64.82
2022-09-15T14:56:21.023Z,64.44
2022-09-15T14:58:54.078Z,64.72
2022-09-15T15:01:27.271Z,64.06
2022-09-15T15:04:10.396Z,64.49
2022-09-15T15:06:52.424Z,64.83
2022-09-15T15:09:26.122Z,65.71
2022-09-15T15:11:58.199Z,66.24
2022-09-15T15:14:27.348Z,66.15
2022-09-15T15:17:03.293Z,66.48
2022-09-15T15:19:34.015Z,64.80
2022-09-15T15:22:22.234Z,66.19
2022-09-15T15:24:53.384Z,66.31
2022-09-15T15:27:40.672Z,66.38
2022-09-15T15:30:36.206Z,66.47
2022-09-15T15:33:06.645Z,66.33
2022-09-15T15:35:40.431Z,66.72
2022-09-15T15:38:25.400Z,65.78
2022-09-15T15:41:01.538Z,64.65
2022-09-15T15:43:36.913Z,64.92
2022-09-15T15:46:07.739Z,65.62
2022-09-15T15:48:38.615Z,65.58
2022-09-15T15:51:11.188Z,65.86
2022-09-15T15:53:41.143Z,66.35
2022-09-15T15:56:09.769Z,66.58
2022-09-15T15:58:38.208Z,65.37
2022-09-15T16:01:06.788Z,65.19
2022-09-15T16:03:35.513Z,65.60
2022-09-15T16:06:04.293Z,65.71
2022-09-15T16:08:34.952Z,65.85
2022-09-15T16:11:05.918Z,65.76
2022-09-15T16:13:34.479Z,67.45
2022-09-15T16:16:03.590Z,68.64
2022-09-15T16:18:32.144Z,67.42
2022-09-15T16:21:00.742Z,67.79
2022-09-15T16:23:29.343Z,68.34
2022-09-15T16:26:01.556Z,68.71
2022-09-15T16:28:31.817Z,69.30
2022-09-15T16:31:01.074Z,68.94
2022-09-15T16:33:31.001Z,67.84
2022-09-15T16:36:06.926Z,68.45
2022-09-15T16:38:37.387Z,68.06
2022-09-15T16:41:13.570Z,68.16
2022-09-15T16:43:44.128Z,67.40
2022-09-15T16:46:14.347Z,67.81
2022-09-15T16:48:47.349Z,67.74
2022-09-15T16:51:27.922Z,68.59
2022-09-15T16:53:59.372Z,67.99
2022-09-15T16:56:28.415Z,66.68
2022-09-15T16:59:01.451Z,66.77
2022-09-15T17:01:30.351Z,66.71
2022-09-15T17:03:58.981Z,64.68
2022-09-15T17:06:31.211Z,66.29
2022-09-15T17:08:59.943Z,67.04
2022-09-15T17:11:30.676Z,67.77
2022-09-15T17:14:03.253Z,66.98
2022-09-15T17:16:32.354Z,66.32
2022-09-15T17:19:03.241Z,65.89
2022-09-15T17:21:31.787Z,65.95
2022-09-15T17:24:00.536Z,67.31
2022-09-15T17:26:32.009Z,67.11
2022-09-15T17:29:05.396Z,67.56
2022-09-15T17:31:34.664Z,70.14
2022-09-15T17:34:06.398Z,69.55
2022-09-15T17:36:37.475Z,69.31
2022-09-15T17:39:08.750Z,69.27
2022-09-15T17:41:41.851Z,68.61
2022-09-15T17:44:14.104Z,69.23
2022-09-15T17:46:43.669Z,68.43
2022-09-15T17:49:12.947Z,68.98
2022-09-15T17:51:47.054Z,68.12
2022-09-15T17:54:16.377Z,68.30
2022-09-15T17:56:45.418Z,69.86
2022-09-15T17:59:16.454Z,69.39
2022-09-15T18:01:45.813Z,69.80
2022-09-15T18:04:15.143Z,70.62
2022-09-15T18:06:49.816Z,70.41
2022-09-15T18:09:19.451Z,70.71
2022-09-15T18:11:49.257Z,68.87
2022-09-15T18:14:20.184Z,69.51
2022-09-15T18:16:49.660Z,69.85
2022-09-15T18:19:18.829Z,70.52
2022-09-15T18:21:53.215Z,68.99
2022-09-15T18:24:22.739Z,68.36
2022-09-15T18:26:52.606Z,67.93
2022-09-15T18:29:23.334Z,68.95
2022-09-15T18:31:53.171Z,69.29
2022-09-15T18:34:22.564Z,69.96
2022-09-15T18:36:51.689Z,69.32
2022-09-15T18:39:20.823Z,69.91
2022-09-15T18:41:50.178Z,67.74
2022-09-15T18:44:19.410Z,68.32
2022-09-15T18:46:50.044Z,67.59
2022-09-15T18:49:19.329Z,67.56
2022-09-15T18:51:51.468Z,66.76
2022-09-15T18:54:21.394Z,66.31
2022-09-15T18:56:51.589Z,66.35
2022-09-15T18:59:20.651Z,66.19
2022-09-15T19:01:53.392Z,66.77
2022-09-15T19:04:22.383Z,66.48
2022-09-15T19:06:51.060Z,64.69
2022-09-15T19:09:20.067Z,66.42
2022-09-15T19:11:48.825Z,64.98
2022-09-15T19:14:19.231Z,63.58
2022-09-15T19:16:58.050Z,63.22
2022-09-15T19:19:27.244Z,63.10
2022-09-15T19:21:55.815Z,63.43
2022-09-15T19:24:26.627Z,63.85
2022-09-15T19:26:55.199Z,62.92
2022-09-15T19:29:23.799Z,64.15
2022-09-15T19:31:53.646Z,66.07
2022-09-15T19:34:22.460Z,65.70
2022-09-15T19:36:50.985Z,66.13
2022-09-15T19:39:19.555Z,66.13
2022-09-15T19:41:48.100Z,66.03
2022-09-15T19:44:17.197Z,66.36
2022-09-15T19:46:46.037Z,65.68
2022-09-15T19:49:16.132Z,65.39
2022-09-15T19:51:44.957Z,65.69
2022-09-15T19:54:13.519Z,66.30
2022-09-15T19:56:41.971Z,66.58
2022-09-15T19:59:11.322Z,67.00
2022-09-15T20:01:39.787Z,67.09
2022-09-15T20:04:08.437Z,66.56
2022-09-15T20:06:38.543Z,66.93
2022-09-15T20:09:08.847Z,65.94
2022-09-15T20:11:37.713Z,65.89
2022-09-15T20:14:07.022Z,64.65
2022-09-15T20:16:38.687Z,65.01
2022-09-15T20:19:07.447Z,66.95
2022-09-15T20:21:49.870Z,66.68
2022-09-15T20:24:20.399Z,66.22
2022-09-15T20:26:49.575Z,66.59
2022-09-15T20:29:18.800Z,66.39
2022-09-15T20:31:47.533Z,66.48
2022-09-15T20:34:16.020Z,67.03
2022-09-15T20:36:45.946Z,66.77
2022-09-15T20:39:16.132Z,68.22
2022-09-15T20:41:45.902Z,67.90
2022-09-15T20:44:14.588Z,67.73
2022-09-15T20:46:50.670Z,67.95
2022-09-15T20:49:19.118Z,68.45
2022-09-15T20:51:51.661Z,70.37
2022-09-15T20:54:20.266Z,69.54
2022-09-15T20:56:48.685Z,69.74
2022-09-15T20:59:17.240Z,70.13
2022-09-15T21:01:46.567Z,70.20
2022-09-15T21:04:14.975Z,69.65
2022-09-15T21:06:45.534Z,68.85
2022-09-15T21:09:15.865Z,69.07
2022-09-15T21:11:44.553Z,68.76
2022-09-15T21:14:14.428Z,68.41
2022-09-15T21:16:45.729Z,69.18
2022-09-15T21:19:14.307Z,69.09
2022-09-15T21:21:42.875Z,70.93
2022-09-15T21:24:11.862Z,71.04
2022-09-15T21:26:56.753Z,71.65
2022-09-15T21:29:25.707Z,70.11
2022-09-15T21:31:54.152Z,68.65
2022-09-15T21:34:28.180Z,68.88
2022-09-15T21:36:59.109Z,69.08
2022-09-15T21:39:27.726Z,69.27
2022-09-15T21:42:05.398Z,68.17
2022-09-15T21:44:34.004Z,70.35
2022-09-15T21:47:05.101Z,69.40
2022-09-15T21:49:33.736Z,68.05
2022-09-15T21:52:02.262Z,67.22
2022-09-15T21:54:31.583Z,66.81
2022-09-15T21:57:01.404Z,68.14
2022-09-15T21:59:30.045Z,69.17
2022-09-15T22:01:58.553Z,69.14
2022-09-15T22:04:26.985Z,69.71
2022-09-15T22:06:55.494Z,70.27
2022-09-15T22:09:24.003Z,70.59
2022-09-15T22:11:52.468Z,71.44
2022-09-15T22:14:22.711Z,71.34
2022-09-15T22:16:51.338Z,72.37
2022-09-15T22:19:22.961Z,70.45
2022-09-15T22:21:55.438Z,70.47
2022-09-15T22:24:24.174Z,71.50
2022-09-15T22:26:52.636Z,70.79
2022-09-15T22:29:22.686Z,70.48
2022-09-15T22:31:51.257Z,69.23
2022-09-15T22:34:19.834Z,69.70
2022-09-15T22:36:48.405Z,69.85
2022-09-15T22:39:16.783Z,69.49
2022-09-15T22:41:45.251Z,70.67
2022-09-15T22:44:19.913Z,71.53
2022-09-15T22:46:51.493Z,71.70
2022-09-15T22:49:20.039Z,71.96
2022-09-15T22:51:48.471Z,70.25
2022-09-15T22:54:17.025Z,69.05
2022-09-15T22:56:47.306Z,68.83
2022-09-15T22:59:17.189Z,69.49
2022-09-15T23:01:45.875Z,69.72
2022-09-15T23:04:16.081Z,69.90
2022-09-15T23:06:44.606Z,70.40
2022-09-15T23:09:13.472Z,70.74
2022-09-15T23:11:42.002Z,69.90
2022-09-15T23:14:15.169Z,69.40
2022-09-15T23:16:44.420Z,68.68
2022-09-15T23:19:13.687Z,69.79
2022-09-15T23:21:43.764Z,69.81
2022-09-15T23:24:14.156Z,68.68
2022-09-15T23:26:42.784Z,70.38
2022-09-15T23:29:11.352Z,69.51
2022-09-15T23:31:39.980Z,69.99
2022-09-15T23:34:08.537Z,71.75
2022-09-15T23:36:37.095Z,71.70
2022-09-15T23:39:09.109Z,70.98
2022-09-15T23:41:39.159Z,71.22
2022-09-15T23:44:07.767Z,70.69
2022-09-15T23:46:36.238Z,71.46
2022-09-15T23:49:05.260Z,71.27
2022-09-15T23:51:33.617Z,71.42
2022-09-15T23:54:03.879Z,72.70
2022-09-15T23:56:34.038Z,73.37
2022-09-15T23:59:04.670Z,72.98
